sensor_id;sensor_type;location;lat;lon;timestamp;P1;durP1;ratioP1;P2;durP2;ratioP2
42104;SDS011;70664;51.472;5.712;2024-03-02T00:00:54;12.45;;;2.70;;
42104;SDS011;70664;51.472;5.712;2024-03-02T00:03:19;5.82;;;2.30;;
42104;SDS011;70664;51.472;5.712;2024-03-02T00:05:49;5.75;;;2.47;;
42104;SDS011;70664;51.472;5.712;2024-03-02T00:08:25;6.85;;;2.42;;
42104;SDS011;70664;51.472;5.712;2024-03-02T00:10:51;6.72;;;2.25;;
42104;SDS011;70664;51.472;5.712;2024-03-02T00:13:21;7.68;;;2.47;;
42104;SDS011;70664;51.472;5.712;2024-03-02T00:21:07;7.20;;;2.35;;
42104;SDS011;70664;51.472;5.712;2024-03-02T00:23:34;8.02;;;2.90;;
42104;SDS011;70664;51.472;5.712;2024-03-02T00:26:01;6.03;;;2.30;;
42104;SDS011;70664;51.472;5.712;2024-03-02T00:28:29;6.45;;;2.30;;
42104;SDS011;70664;51.472;5.712;2024-03-02T00:31:07;4.95;;;2.35;;
42104;SDS011;70664;51.472;5.712;2024-03-02T00:36:08;5.45;;;2.22;;
42104;SDS011;70664;51.472;5.712;2024-03-02T00:38:41;5.28;;;2.28;;
42104;SDS011;70664;51.472;5.712;2024-03-02T00:41:16;6.90;;;2.10;;
42104;SDS011;70664;51.472;5.712;2024-03-02T00:46:31;4.63;;;1.95;;
42104;SDS011;70664;51.472;5.712;2024-03-02T00:49:06;4.90;;;2.53;;
42104;SDS011;70664;51.472;5.712;2024-03-02T00:51:36;4.88;;;2.08;;
42104;SDS011;70664;51.472;5.712;2024-03-02T00:54:08;6.40;;;1.85;;
42104;SDS011;70664;51.472;5.712;2024-03-02T00:56:35;5.13;;;2.45;;
42104;SDS011;70664;51.472;5.712;2024-03-02T00:59:01;4.75;;;1.80;;
42104;SDS011;70664;51.472;5.712;2024-03-02T01:01:27;5.53;;;2.10;;
42104;SDS011;70664;51.472;5.712;2024-03-02T01:03:53;6.15;;;2.28;;
42104;SDS011;70664;51.472;5.712;2024-03-02T01:06:19;6.47;;;2.20;;
42104;SDS011;70664;51.472;5.712;2024-03-02T01:08:44;5.53;;;1.80;;
42104;SDS011;70664;51.472;5.712;2024-03-02T01:11:12;4.18;;;1.95;;
42104;SDS011;70664;51.472;5.712;2024-03-02T01:13:38;5.65;;;2.38;;
42104;SDS011;70664;51.472;5.712;2024-03-02T01:16:04;4.57;;;2.05;;
42104;SDS011;70664;51.472;5.712;2024-03-02T01:18:29;4.88;;;2.40;;
42104;SDS011;70664;51.472;5.712;2024-03-02T01:20:56;7.53;;;2.35;;
42104;SDS011;70664;51.472;5.712;2024-03-02T01:23:22;4.32;;;1.90;;
42104;SDS011;70664;51.472;5.712;2024-03-02T01:25:48;4.03;;;2.00;;
42104;SDS011;70664;51.472;5.712;2024-03-02T01:28:15;5.90;;;2.10;;
42104;SDS011;70664;51.472;5.712;2024-03-02T01:30:41;4.20;;;1.90;;
42104;SDS011;70664;51.472;5.712;2024-03-02T01:33:07;3.92;;;1.70;;
42104;SDS011;70664;51.472;5.712;2024-03-02T01:35:33;4.50;;;2.10;;
42104;SDS011;70664;51.472;5.712;2024-03-02T01:38:02;3.63;;;1.73;;
42104;SDS011;70664;51.472;5.712;2024-03-02T01:40:31;4.80;;;1.98;;
42104;SDS011;70664;51.472;5.712;2024-03-02T01:43:00;5.55;;;1.95;;
42104;SDS011;70664;51.472;5.712;2024-03-02T01:45:27;5.28;;;1.70;;
42104;SDS011;70664;51.472;5.712;2024-03-02T01:47:53;4.93;;;1.80;;
42104;SDS011;70664;51.472;5.712;2024-03-02T01:50:26;4.43;;;1.70;;
42104;SDS011;70664;51.472;5.712;2024-03-02T01:55:23;3.90;;;1.65;;
42104;SDS011;70664;51.472;5.712;2024-03-02T01:57:50;5.30;;;1.83;;
42104;SDS011;70664;51.472;5.712;2024-03-02T02:00:17;3.78;;;1.63;;
42104;SDS011;70664;51.472;5.712;2024-03-02T02:02:45;3.58;;;1.65;;
42104;SDS011;70664;51.472;5.712;2024-03-02T02:05:14;3.65;;;1.85;;
42104;SDS011;70664;51.472;5.712;2024-03-02T02:07:40;3.42;;;1.75;;
42104;SDS011;70664;51.472;5.712;2024-03-02T02:10:07;3.67;;;1.70;;
42104;SDS011;70664;51.472;5.712;2024-03-02T02:12:34;4.07;;;1.77;;
42104;SDS011;70664;51.472;5.712;2024-03-02T02:15:01;5.30;;;1.75;;
42104;SDS011;70664;51.472;5.712;2024-03-02T02:17:30;3.60;;;1.63;;
42104;SDS011;70664;51.472;5.712;2024-03-02T02:19:56;4.38;;;1.85;;
42104;SDS011;70664;51.472;5.712;2024-03-02T02:22:22;4.85;;;1.80;;
42104;SDS011;70664;51.472;5.712;2024-03-02T02:24:48;5.38;;;1.70;;
42104;SDS011;70664;51.472;5.712;2024-03-02T02:27:14;3.45;;;1.50;;
42104;SDS011;70664;51.472;5.712;2024-03-02T02:29:40;3.78;;;1.63;;
42104;SDS011;70664;51.472;5.712;2024-03-02T02:32:07;2.97;;;1.40;;
42104;SDS011;70664;51.472;5.712;2024-03-02T02:34:33;3.00;;;1.42;;
42104;SDS011;70664;51.472;5.712;2024-03-02T02:36:58;3.85;;;1.70;;
42104;SDS011;70664;51.472;5.712;2024-03-02T02:39:25;3.22;;;1.48;;
42104;SDS011;70664;51.472;5.712;2024-03-02T02:41:51;2.47;;;1.42;;
42104;SDS011;70664;51.472;5.712;2024-03-02T02:44:16;3.47;;;1.52;;
42104;SDS011;70664;51.472;5.712;2024-03-02T02:46:42;4.03;;;1.70;;
42104;SDS011;70664;51.472;5.712;2024-03-02T02:49:08;3.15;;;1.45;;
42104;SDS011;70664;51.472;5.712;2024-03-02T02:51:34;3.88;;;1.67;;
42104;SDS011;70664;51.472;5.712;2024-03-02T02:53:59;2.85;;;1.42;;
42104;SDS011;70664;51.472;5.712;2024-03-02T02:56:25;3.53;;;1.58;;
42104;SDS011;70664;51.472;5.712;2024-03-02T02:58:51;2.90;;;1.10;;
42104;SDS011;70664;51.472;5.712;2024-03-02T03:01:17;2.95;;;1.40;;
42104;SDS011;70664;51.472;5.712;2024-03-02T03:03:43;2.75;;;1.40;;
42104;SDS011;70664;51.472;5.712;2024-03-02T03:06:10;5.22;;;1.65;;
42104;SDS011;70664;51.472;5.712;2024-03-02T03:08:36;5.05;;;1.50;;
42104;SDS011;70664;51.472;5.712;2024-03-02T03:11:02;2.70;;;1.42;;
42104;SDS011;70664;51.472;5.712;2024-03-02T03:13:29;2.80;;;1.40;;
42104;SDS011;70664;51.472;5.712;2024-03-02T03:15:59;2.83;;;1.30;;
42104;SDS011;70664;51.472;5.712;2024-03-02T03:18:25;3.35;;;1.50;;
42104;SDS011;70664;51.472;5.712;2024-03-02T03:20:54;1.95;;;1.10;;
42104;SDS011;70664;51.472;5.712;2024-03-02T03:23:19;2.85;;;1.38;;
42104;SDS011;70664;51.472;5.712;2024-03-02T03:25:45;2.80;;;1.40;;
42104;SDS011;70664;51.472;5.712;2024-03-02T03:28:11;2.90;;;1.27;;
42104;SDS011;70664;51.472;5.712;2024-03-02T03:30:37;2.55;;;1.25;;
42104;SDS011;70664;51.472;5.712;2024-03-02T03:33:04;2.85;;;1.48;;
42104;SDS011;70664;51.472;5.712;2024-03-02T03:35:33;2.33;;;1.27;;
42104;SDS011;70664;51.472;5.712;2024-03-02T03:38:00;1.83;;;1.15;;
42104;SDS011;70664;51.472;5.712;2024-03-02T03:40:29;3.17;;;1.40;;
42104;SDS011;70664;51.472;5.712;2024-03-02T03:42:54;2.67;;;1.10;;
42104;SDS011;70664;51.472;5.712;2024-03-02T03:45:21;3.13;;;1.23;;
42104;SDS011;70664;51.472;5.712;2024-03-02T03:47:47;2.72;;;1.38;;
42104;SDS011;70664;51.472;5.712;2024-03-02T03:50:13;3.95;;;1.50;;
42104;SDS011;70664;51.472;5.712;2024-03-02T03:52:39;1.83;;;1.00;;
42104;SDS011;70664;51.472;5.712;2024-03-02T03:55:05;2.58;;;1.33;;
42104;SDS011;70664;51.472;5.712;2024-03-02T03:57:31;2.47;;;1.30;;
42104;SDS011;70664;51.472;5.712;2024-03-02T03:59:57;2.67;;;1.60;;
42104;SDS011;70664;51.472;5.712;2024-03-02T04:02:23;2.25;;;1.00;;
42104;SDS011;70664;51.472;5.712;2024-03-02T04:04:49;2.55;;;1.30;;
42104;SDS011;70664;51.472;5.712;2024-03-02T04:07:15;2.92;;;1.17;;
42104;SDS011;70664;51.472;5.712;2024-03-02T04:09:41;3.05;;;1.40;;
42104;SDS011;70664;51.472;5.712;2024-03-02T04:12:07;2.03;;;1.00;;
42104;SDS011;70664;51.472;5.712;2024-03-02T04:14:33;3.85;;;1.40;;
42104;SDS011;70664;51.472;5.712;2024-03-02T04:16:58;3.13;;;1.20;;
42104;SDS011;70664;51.472;5.712;2024-03-02T04:19:25;6.55;;;1.30;;
42104;SDS011;70664;51.472;5.712;2024-03-02T04:21:55;2.72;;;1.20;;
42104;SDS011;70664;51.472;5.712;2024-03-02T04:24:21;2.95;;;1.35;;
42104;SDS011;70664;51.472;5.712;2024-03-02T04:26:46;3.10;;;1.30;;
42104;SDS011;70664;51.472;5.712;2024-03-02T04:29:12;3.15;;;1.30;;
42104;SDS011;70664;51.472;5.712;2024-03-02T04:31:38;2.45;;;0.95;;
42104;SDS011;70664;51.472;5.712;2024-03-02T04:34:04;1.85;;;1.10;;
42104;SDS011;70664;51.472;5.712;2024-03-02T04:36:29;2.45;;;1.33;;
42104;SDS011;70664;51.472;5.712;2024-03-02T04:38:55;1.52;;;0.95;;
42104;SDS011;70664;51.472;5.712;2024-03-02T04:41:21;3.13;;;1.42;;
42104;SDS011;70664;51.472;5.712;2024-03-02T04:43:47;2.78;;;1.00;;
42104;SDS011;70664;51.472;5.712;2024-03-02T04:46:13;3.03;;;1.30;;
42104;SDS011;70664;51.472;5.712;2024-03-02T04:48:39;1.70;;;0.85;;
42104;SDS011;70664;51.472;5.712;2024-03-02T04:51:04;3.25;;;1.02;;
42104;SDS011;70664;51.472;5.712;2024-03-02T04:53:30;1.67;;;1.00;;
42104;SDS011;70664;51.472;5.712;2024-03-02T04:55:56;1.90;;;1.20;;
42104;SDS011;70664;51.472;5.712;2024-03-02T04:58:40;2.37;;;1.00;;
42104;SDS011;70664;51.472;5.712;2024-03-02T05:01:06;3.05;;;1.27;;
42104;SDS011;70664;51.472;5.712;2024-03-02T05:03:32;2.90;;;1.20;;
42104;SDS011;70664;51.472;5.712;2024-03-02T05:05:59;2.00;;;0.95;;
42104;SDS011;70664;51.472;5.712;2024-03-02T05:08:25;2.35;;;1.20;;
42104;SDS011;70664;51.472;5.712;2024-03-02T05:10:51;1.80;;;1.10;;
42104;SDS011;70664;51.472;5.712;2024-03-02T05:13:17;3.17;;;1.10;;
42104;SDS011;70664;51.472;5.712;2024-03-02T05:15:43;1.90;;;1.10;;
42104;SDS011;70664;51.472;5.712;2024-03-02T05:18:09;2.42;;;1.30;;
42104;SDS011;70664;51.472;5.712;2024-03-02T05:20:34;2.70;;;1.10;;
42104;SDS011;70664;51.472;5.712;2024-03-02T05:23:00;2.95;;;1.27;;
42104;SDS011;70664;51.472;5.712;2024-03-02T05:25:26;2.20;;;1.20;;
42104;SDS011;70664;51.472;5.712;2024-03-02T05:27:52;2.75;;;1.15;;
42104;SDS011;70664;51.472;5.712;2024-03-02T05:30:18;1.67;;;1.08;;
42104;SDS011;70664;51.472;5.712;2024-03-02T05:32:43;1.98;;;0.90;;
42104;SDS011;70664;51.472;5.712;2024-03-02T05:35:09;2.22;;;1.25;;
42104;SDS011;70664;51.472;5.712;2024-03-02T05:37:37;1.70;;;1.10;;
42104;SDS011;70664;51.472;5.712;2024-03-02T05:40:04;2.38;;;0.90;;
42104;SDS011;70664;51.472;5.712;2024-03-02T05:42:31;2.17;;;1.08;;
42104;SDS011;70664;51.472;5.712;2024-03-02T05:44:56;3.15;;;1.00;;
42104;SDS011;70664;51.472;5.712;2024-03-02T05:47:22;2.58;;;1.10;;
42104;SDS011;70664;51.472;5.712;2024-03-02T05:49:48;2.40;;;1.00;;
42104;SDS011;70664;51.472;5.712;2024-03-02T05:52:14;2.22;;;1.00;;
42104;SDS011;70664;51.472;5.712;2024-03-02T05:54:39;1.98;;;1.02;;
42104;SDS011;70664;51.472;5.712;2024-03-02T05:57:05;1.88;;;1.00;;
42104;SDS011;70664;51.472;5.712;2024-03-02T05:59:50;3.60;;;1.10;;
42104;SDS011;70664;51.472;5.712;2024-03-02T06:02:16;1.67;;;0.98;;
42104;SDS011;70664;51.472;5.712;2024-03-02T06:04:41;1.70;;;0.93;;
42104;SDS011;70664;51.472;5.712;2024-03-02T06:07:07;2.33;;;1.00;;
42104;SDS011;70664;51.472;5.712;2024-03-02T06:09:33;2.15;;;0.93;;
42104;SDS011;70664;51.472;5.712;2024-03-02T06:11:59;3.30;;;1.00;;
42104;SDS011;70664;51.472;5.712;2024-03-02T06:14:25;1.67;;;0.73;;
42104;SDS011;70664;51.472;5.712;2024-03-02T06:16:51;2.10;;;0.80;;
42104;SDS011;70664;51.472;5.712;2024-03-02T06:19:17;2.03;;;1.00;;
42104;SDS011;70664;51.472;5.712;2024-03-02T06:21:43;2.10;;;1.00;;
42104;SDS011;70664;51.472;5.712;2024-03-02T06:24:09;2.00;;;0.90;;
42104;SDS011;70664;51.472;5.712;2024-03-02T06:26:35;2.47;;;0.95;;
42104;SDS011;70664;51.472;5.712;2024-03-02T06:29:00;1.45;;;0.88;;
42104;SDS011;70664;51.472;5.712;2024-03-02T06:31:27;1.60;;;0.77;;
42104;SDS011;70664;51.472;5.712;2024-03-02T06:33:53;2.17;;;1.10;;
42104;SDS011;70664;51.472;5.712;2024-03-02T06:36:19;2.00;;;1.10;;
42104;SDS011;70664;51.472;5.712;2024-03-02T06:38:44;1.30;;;0.70;;
42104;SDS011;70664;51.472;5.712;2024-03-02T06:41:10;1.17;;;0.90;;
42104;SDS011;70664;51.472;5.712;2024-03-02T06:43:36;1.55;;;0.70;;
42104;SDS011;70664;51.472;5.712;2024-03-02T06:46:03;2.10;;;0.90;;
42104;SDS011;70664;51.472;5.712;2024-03-02T06:48:30;2.50;;;1.17;;
42104;SDS011;70664;51.472;5.712;2024-03-02T06:50:55;1.55;;;0.98;;
42104;SDS011;70664;51.472;5.712;2024-03-02T06:53:22;1.52;;;0.80;;
42104;SDS011;70664;51.472;5.712;2024-03-02T06:55:48;1.42;;;0.73;;
42104;SDS011;70664;51.472;5.712;2024-03-02T06:58:14;1.30;;;0.93;;
42104;SDS011;70664;51.472;5.712;2024-03-02T07:00:41;1.33;;;0.73;;
42104;SDS011;70664;51.472;5.712;2024-03-02T07:03:07;1.10;;;0.75;;
42104;SDS011;70664;51.472;5.712;2024-03-02T07:05:33;1.42;;;0.90;;
42104;SDS011;70664;51.472;5.712;2024-03-02T07:07:59;1.73;;;1.00;;
42104;SDS011;70664;51.472;5.712;2024-03-02T07:10:26;1.15;;;0.80;;
42104;SDS011;70664;51.472;5.712;2024-03-02T07:12:52;2.00;;;0.90;;
42104;SDS011;70664;51.472;5.712;2024-03-02T07:15:18;2.03;;;0.88;;
42104;SDS011;70664;51.472;5.712;2024-03-02T07:17:53;1.30;;;0.90;;
42104;SDS011;70664;51.472;5.712;2024-03-02T07:20:19;1.45;;;0.73;;
42104;SDS011;70664;51.472;5.712;2024-03-02T07:22:46;1.67;;;0.82;;
42104;SDS011;70664;51.472;5.712;2024-03-02T07:25:12;1.88;;;0.82;;
42104;SDS011;70664;51.472;5.712;2024-03-02T07:27:38;1.90;;;0.90;;
42104;SDS011;70664;51.472;5.712;2024-03-02T07:30:05;1.20;;;0.70;;
42104;SDS011;70664;51.472;5.712;2024-03-02T07:32:32;1.30;;;0.70;;
42104;SDS011;70664;51.472;5.712;2024-03-02T07:34:57;2.38;;;0.88;;
42104;SDS011;70664;51.472;5.712;2024-03-02T07:37:23;3.15;;;0.90;;
42104;SDS011;70664;51.472;5.712;2024-03-02T07:39:50;1.65;;;0.85;;
42104;SDS011;70664;51.472;5.712;2024-03-02T07:42:16;1.00;;;0.70;;
42104;SDS011;70664;51.472;5.712;2024-03-02T07:44:44;1.20;;;0.80;;
42104;SDS011;70664;51.472;5.712;2024-03-02T07:47:10;1.33;;;0.90;;
42104;SDS011;70664;51.472;5.712;2024-03-02T07:49:36;2.13;;;0.85;;
42104;SDS011;70664;51.472;5.712;2024-03-02T07:52:02;1.55;;;0.80;;
42104;SDS011;70664;51.472;5.712;2024-03-02T07:54:28;1.50;;;0.77;;
42104;SDS011;70664;51.472;5.712;2024-03-02T07:56:54;1.83;;;0.90;;
42104;SDS011;70664;51.472;5.712;2024-03-02T07:59:20;1.35;;;0.80;;
42104;SDS011;70664;51.472;5.712;2024-03-02T08:01:47;1.30;;;0.80;;
42104;SDS011;70664;51.472;5.712;2024-03-02T08:04:14;2.13;;;0.93;;
42104;SDS011;70664;51.472;5.712;2024-03-02T08:06:40;1.30;;;0.70;;
42104;SDS011;70664;51.472;5.712;2024-03-02T08:09:06;2.47;;;0.80;;
42104;SDS011;70664;51.472;5.712;2024-03-02T08:11:35;2.35;;;1.00;;
42104;SDS011;70664;51.472;5.712;2024-03-02T08:14:02;1.60;;;1.00;;
42104;SDS011;70664;51.472;5.712;2024-03-02T08:16:28;0.93;;;0.60;;
42104;SDS011;70664;51.472;5.712;2024-03-02T08:18:54;1.73;;;0.82;;
42104;SDS011;70664;51.472;5.712;2024-03-02T08:21:23;1.40;;;0.88;;
42104;SDS011;70664;51.472;5.712;2024-03-02T08:23:49;1.52;;;0.88;;
42104;SDS011;70664;51.472;5.712;2024-03-02T08:26:15;1.98;;;0.77;;
42104;SDS011;70664;51.472;5.712;2024-03-02T08:28:41;1.75;;;0.80;;
42104;SDS011;70664;51.472;5.712;2024-03-02T08:31:07;1.58;;;0.68;;
42104;SDS011;70664;51.472;5.712;2024-03-02T08:33:33;3.05;;;0.90;;
42104;SDS011;70664;51.472;5.712;2024-03-02T08:36:00;1.70;;;0.90;;
42104;SDS011;70664;51.472;5.712;2024-03-02T08:38:26;2.47;;;0.90;;
42104;SDS011;70664;51.472;5.712;2024-03-02T08:40:52;2.65;;;1.00;;
42104;SDS011;70664;51.472;5.712;2024-03-02T08:43:18;5.05;;;1.05;;
42104;SDS011;70664;51.472;5.712;2024-03-02T08:45:45;1.95;;;0.90;;
42104;SDS011;70664;51.472;5.712;2024-03-02T08:48:12;2.47;;;0.85;;
42104;SDS011;70664;51.472;5.712;2024-03-02T08:50:38;2.60;;;0.95;;
42104;SDS011;70664;51.472;5.712;2024-03-02T08:53:04;2.83;;;1.00;;
42104;SDS011;70664;51.472;5.712;2024-03-02T08:55:30;1.85;;;1.05;;
42104;SDS011;70664;51.472;5.712;2024-03-02T08:57:56;4.07;;;1.25;;
42104;SDS011;70664;51.472;5.712;2024-03-02T09:00:22;2.67;;;1.30;;
42104;SDS011;70664;51.472;5.712;2024-03-02T09:02:48;2.58;;;0.90;;
42104;SDS011;70664;51.472;5.712;2024-03-02T09:05:14;2.47;;;1.00;;
42104;SDS011;70664;51.472;5.712;2024-03-02T09:07:40;2.72;;;0.98;;
42104;SDS011;70664;51.472;5.712;2024-03-02T09:10:06;3.17;;;0.95;;
42104;SDS011;70664;51.472;5.712;2024-03-02T09:12:33;2.20;;;0.63;;
42104;SDS011;70664;51.472;5.712;2024-03-02T09:15:01;1.77;;;0.85;;
42104;SDS011;70664;51.472;5.712;2024-03-02T09:17:31;3.00;;;0.80;;
42104;SDS011;70664;51.472;5.712;2024-03-02T09:19:57;1.63;;;0.75;;
42104;SDS011;70664;51.472;5.712;2024-03-02T09:22:22;2.53;;;0.90;;
42104;SDS011;70664;51.472;5.712;2024-03-02T09:24:48;2.83;;;0.95;;
42104;SDS011;70664;51.472;5.712;2024-03-02T09:27:14;2.15;;;0.93;;
42104;SDS011;70664;51.472;5.712;2024-03-02T09:29:40;2.25;;;1.17;;
42104;SDS011;70664;51.472;5.712;2024-03-02T09:32:06;2.65;;;0.80;;
42104;SDS011;70664;51.472;5.712;2024-03-02T09:34:33;4.47;;;0.80;;
42104;SDS011;70664;51.472;5.712;2024-03-02T09:36:59;1.88;;;0.93;;
42104;SDS011;70664;51.472;5.712;2024-03-02T09:39:25;4.28;;;0.90;;
42104;SDS011;70664;51.472;5.712;2024-03-02T09:41:51;2.28;;;0.93;;
42104;SDS011;70664;51.472;5.712;2024-03-02T09:44:17;1.33;;;0.80;;
42104;SDS011;70664;51.472;5.712;2024-03-02T09:46:44;4.75;;;0.98;;
42104;SDS011;70664;51.472;5.712;2024-03-02T09:49:14;3.05;;;0.80;;
42104;SDS011;70664;51.472;5.712;2024-03-02T09:51:40;2.08;;;0.80;;
42104;SDS011;70664;51.472;5.712;2024-03-02T09:54:11;5.57;;;1.10;;
42104;SDS011;70664;51.472;5.712;2024-03-02T09:56:37;3.05;;;1.00;;
42104;SDS011;70664;51.472;5.712;2024-03-02T09:59:04;2.22;;;0.90;;
42104;SDS011;70664;51.472;5.712;2024-03-02T10:01:30;1.75;;;0.80;;
42104;SDS011;70664;51.472;5.712;2024-03-02T10:03:58;3.58;;;1.10;;
42104;SDS011;70664;51.472;5.712;2024-03-02T10:06:25;2.00;;;0.90;;
42104;SDS011;70664;51.472;5.712;2024-03-02T10:08:53;1.85;;;0.77;;
42104;SDS011;70664;51.472;5.712;2024-03-02T10:11:39;2.63;;;0.90;;
42104;SDS011;70664;51.472;5.712;2024-03-02T10:16:39;3.58;;;0.80;;
42104;SDS011;70664;51.472;5.712;2024-03-02T10:19:19;3.60;;;1.00;;
42104;SDS011;70664;51.472;5.712;2024-03-02T10:21:51;2.85;;;0.90;;
42104;SDS011;70664;51.472;5.712;2024-03-02T10:24:20;2.60;;;0.80;;
42104;SDS011;70664;51.472;5.712;2024-03-02T10:26:48;6.30;;;1.08;;
42104;SDS011;70664;51.472;5.712;2024-03-02T10:29:14;2.67;;;1.23;;
42104;SDS011;70664;51.472;5.712;2024-03-02T10:31:41;2.88;;;0.70;;
42104;SDS011;70664;51.472;5.712;2024-03-02T10:34:11;1.40;;;0.80;;
42104;SDS011;70664;51.472;5.712;2024-03-02T10:36:40;3.67;;;0.90;;
42104;SDS011;70664;51.472;5.712;2024-03-02T10:39:07;2.55;;;0.77;;
42104;SDS011;70664;51.472;5.712;2024-03-02T10:41:35;5.15;;;0.90;;
42104;SDS011;70664;51.472;5.712;2024-03-02T10:44:09;2.30;;;0.80;;
42104;SDS011;70664;51.472;5.712;2024-03-02T10:46:38;2.20;;;1.00;;
42104;SDS011;70664;51.472;5.712;2024-03-02T10:49:04;3.55;;;0.80;;
42104;SDS011;70664;51.472;5.712;2024-03-02T10:51:32;4.30;;;1.20;;
42104;SDS011;70664;51.472;5.712;2024-03-02T10:54:01;2.00;;;0.90;;
42104;SDS011;70664;51.472;5.712;2024-03-02T10:56:38;2.67;;;1.00;;
42104;SDS011;70664;51.472;5.712;2024-03-02T10:59:14;7.82;;;4.57;;
42104;SDS011;70664;51.472;5.712;2024-03-02T11:01:50;8.80;;;3.90;;
42104;SDS011;70664;51.472;5.712;2024-03-02T11:04:27;6.68;;;3.97;;
42104;SDS011;70664;51.472;5.712;2024-03-02T11:07:15;8.40;;;3.80;;
42104;SDS011;70664;51.472;5.712;2024-03-02T11:09:45;5.90;;;3.08;;
42104;SDS011;70664;51.472;5.712;2024-03-02T11:12:29;7.40;;;3.35;;
42104;SDS011;70664;51.472;5.712;2024-03-02T11:14:59;6.35;;;3.30;;
42104;SDS011;70664;51.472;5.712;2024-03-02T11:17:28;4.80;;;3.05;;
42104;SDS011;70664;51.472;5.712;2024-03-02T11:19:55;6.20;;;3.05;;
42104;SDS011;70664;51.472;5.712;2024-03-02T11:22:22;6.85;;;3.22;;
42104;SDS011;70664;51.472;5.712;2024-03-02T11:24:48;4.38;;;3.10;;
42104;SDS011;70664;51.472;5.712;2024-03-02T11:27:20;8.32;;;3.13;;
42104;SDS011;70664;51.472;5.712;2024-03-02T11:33:01;4.60;;;2.55;;
42104;SDS011;70664;51.472;5.712;2024-03-02T11:35:44;4.13;;;2.60;;
42104;SDS011;70664;51.472;5.712;2024-03-02T11:38:11;4.70;;;2.95;;
42104;SDS011;70664;51.472;5.712;2024-03-02T11:40:40;4.55;;;3.15;;
42104;SDS011;70664;51.472;5.712;2024-03-02T11:43:07;5.75;;;2.97;;
42104;SDS011;70664;51.472;5.712;2024-03-02T11:45:33;8.68;;;3.10;;
42104;SDS011;70664;51.472;5.712;2024-03-02T11:48:04;3.72;;;2.88;;
42104;SDS011;70664;51.472;5.712;2024-03-02T11:53:08;4.82;;;3.00;;
42104;SDS011;70664;51.472;5.712;2024-03-02T11:55:39;5.25;;;2.70;;
42104;SDS011;70664;51.472;5.712;2024-03-02T11:58:06;4.53;;;2.53;;
42104;SDS011;70664;51.472;5.712;2024-03-02T12:00:32;5.45;;;2.67;;
42104;SDS011;70664;51.472;5.712;2024-03-02T12:03:08;8.48;;;2.67;;
42104;SDS011;70664;51.472;5.712;2024-03-02T12:05:39;4.53;;;2.60;;
42104;SDS011;70664;51.472;5.712;2024-03-02T12:08:06;4.25;;;2.50;;
42104;SDS011;70664;51.472;5.712;2024-03-02T12:10:32;5.68;;;3.00;;
42104;SDS011;70664;51.472;5.712;2024-03-02T12:13:01;5.53;;;2.80;;
42104;SDS011;70664;51.472;5.712;2024-03-02T12:15:30;5.53;;;2.78;;
42104;SDS011;70664;51.472;5.712;2024-03-02T12:17:58;4.13;;;2.50;;
42104;SDS011;70664;51.472;5.712;2024-03-02T12:20:27;4.15;;;2.60;;
42104;SDS011;70664;51.472;5.712;2024-03-02T12:22:57;4.13;;;2.47;;
42104;SDS011;70664;51.472;5.712;2024-03-02T12:25:24;3.67;;;2.38;;
42104;SDS011;70664;51.472;5.712;2024-03-02T12:27:53;4.65;;;2.80;;
42104;SDS011;70664;51.472;5.712;2024-03-02T12:30:21;3.33;;;2.40;;
42104;SDS011;70664;51.472;5.712;2024-03-02T12:32:47;4.78;;;2.42;;
42104;SDS011;70664;51.472;5.712;2024-03-02T12:35:14;4.93;;;2.70;;
42104;SDS011;70664;51.472;5.712;2024-03-02T12:37:47;4.70;;;2.53;;
42104;SDS011;70664;51.472;5.712;2024-03-02T12:40:15;4.07;;;2.40;;
42104;SDS011;70664;51.472;5.712;2024-03-02T12:42:47;6.60;;;2.78;;
42104;SDS011;70664;51.472;5.712;2024-03-02T12:45:13;5.55;;;2.42;;
42104;SDS011;70664;51.472;5.712;2024-03-02T12:47:40;7.82;;;2.35;;
42104;SDS011;70664;51.472;5.712;2024-03-02T12:50:08;4.57;;;2.42;;
42104;SDS011;70664;51.472;5.712;2024-03-02T12:52:35;6.60;;;2.60;;
42104;SDS011;70664;51.472;5.712;2024-03-02T12:55:02;4.03;;;2.30;;
42104;SDS011;70664;51.472;5.712;2024-03-02T12:57:33;4.35;;;2.40;;
42104;SDS011;70664;51.472;5.712;2024-03-02T13:02:34;5.88;;;2.40;;
42104;SDS011;70664;51.472;5.712;2024-03-02T13:05:01;3.58;;;2.30;;
42104;SDS011;70664;51.472;5.712;2024-03-02T13:07:28;5.07;;;2.53;;
42104;SDS011;70664;51.472;5.712;2024-03-02T13:09:55;10.60;;;2.72;;
42104;SDS011;70664;51.472;5.712;2024-03-02T13:12:22;3.45;;;2.35;;
42104;SDS011;70664;51.472;5.712;2024-03-02T13:14:50;5.82;;;2.70;;
42104;SDS011;70664;51.472;5.712;2024-03-02T13:17:20;4.13;;;2.20;;
42104;SDS011;70664;51.472;5.712;2024-03-02T13:19:56;5.15;;;2.63;;
42104;SDS011;70664;51.472;5.712;2024-03-02T13:22:24;5.10;;;2.35;;
42104;SDS011;70664;51.472;5.712;2024-03-02T13:24:51;6.30;;;2.47;;
42104;SDS011;70664;51.472;5.712;2024-03-02T13:27:21;4.13;;;2.28;;
42104;SDS011;70664;51.472;5.712;2024-03-02T13:29:47;4.05;;;2.47;;
42104;SDS011;70664;51.472;5.712;2024-03-02T13:32:14;3.28;;;2.30;;
42104;SDS011;70664;51.472;5.712;2024-03-02T13:34:41;3.35;;;2.40;;
42104;SDS011;70664;51.472;5.712;2024-03-02T13:37:07;4.22;;;2.38;;
42104;SDS011;70664;51.472;5.712;2024-03-02T13:39:34;2.83;;;2.20;;
42104;SDS011;70664;51.472;5.712;2024-03-02T13:42:06;3.60;;;2.40;;
42104;SDS011;70664;51.472;5.712;2024-03-02T13:44:37;3.35;;;2.10;;
42104;SDS011;70664;51.472;5.712;2024-03-02T13:47:03;4.32;;;2.38;;
42104;SDS011;70664;51.472;5.712;2024-03-02T13:49:29;4.72;;;2.55;;
42104;SDS011;70664;51.472;5.712;2024-03-02T13:52:01;5.07;;;2.40;;
42104;SDS011;70664;51.472;5.712;2024-03-02T13:54:36;3.00;;;1.98;;
42104;SDS011;70664;51.472;5.712;2024-03-02T13:57:03;3.90;;;2.15;;
42104;SDS011;70664;51.472;5.712;2024-03-02T13:59:30;4.25;;;2.08;;
42104;SDS011;70664;51.472;5.712;2024-03-02T14:01:55;3.80;;;2.20;;
42104;SDS011;70664;51.472;5.712;2024-03-02T14:04:21;4.15;;;2.35;;
42104;SDS011;70664;51.472;5.712;2024-03-02T14:06:48;3.85;;;2.40;;
42104;SDS011;70664;51.472;5.712;2024-03-02T14:09:14;3.55;;;2.20;;
42104;SDS011;70664;51.472;5.712;2024-03-02T14:11:40;3.55;;;2.08;;
42104;SDS011;70664;51.472;5.712;2024-03-02T14:14:05;3.25;;;2.13;;
42104;SDS011;70664;51.472;5.712;2024-03-02T14:16:31;3.42;;;2.00;;
42104;SDS011;70664;51.472;5.712;2024-03-02T14:18:57;5.50;;;2.05;;
42104;SDS011;70664;51.472;5.712;2024-03-02T14:21:24;5.78;;;2.15;;
42104;SDS011;70664;51.472;5.712;2024-03-02T14:23:50;2.58;;;2.00;;
42104;SDS011;70664;51.472;5.712;2024-03-02T14:26:15;3.15;;;1.90;;
42104;SDS011;70664;51.472;5.712;2024-03-02T14:28:41;3.28;;;2.20;;
42104;SDS011;70664;51.472;5.712;2024-03-02T14:31:07;4.35;;;2.03;;
42104;SDS011;70664;51.472;5.712;2024-03-02T14:33:33;3.78;;;2.10;;
42104;SDS011;70664;51.472;5.712;2024-03-02T14:35:59;2.83;;;1.88;;
42104;SDS011;70664;51.472;5.712;2024-03-02T14:38:25;3.78;;;2.08;;
42104;SDS011;70664;51.472;5.712;2024-03-02T14:40:51;3.85;;;1.98;;
42104;SDS011;70664;51.472;5.712;2024-03-02T14:43:17;4.25;;;2.08;;
42104;SDS011;70664;51.472;5.712;2024-03-02T14:45:43;4.72;;;2.25;;
42104;SDS011;70664;51.472;5.712;2024-03-02T14:48:09;3.55;;;1.88;;
42104;SDS011;70664;51.472;5.712;2024-03-02T14:50:34;2.92;;;1.90;;
42104;SDS011;70664;51.472;5.712;2024-03-02T14:53:01;3.40;;;1.90;;
42104;SDS011;70664;51.472;5.712;2024-03-02T14:55:27;2.50;;;1.60;;
42104;SDS011;70664;51.472;5.712;2024-03-02T14:57:53;4.10;;;2.00;;
42104;SDS011;70664;51.472;5.712;2024-03-02T15:00:19;3.72;;;1.73;;
42104;SDS011;70664;51.472;5.712;2024-03-02T15:02:44;4.45;;;2.00;;
42104;SDS011;70664;51.472;5.712;2024-03-02T15:05:10;3.22;;;1.60;;
42104;SDS011;70664;51.472;5.712;2024-03-02T15:11:33;3.42;;;1.80;;
42104;SDS011;70664;51.472;5.712;2024-03-02T15:13:59;3.95;;;1.88;;
42104;SDS011;70664;51.472;5.712;2024-03-02T15:16:24;3.40;;;1.80;;